sensor_id;sensor_type;location;lat;lon;timestamp;P1;durP1;ratioP1;P2;durP2;ratioP2
32491;SDS011;20605;49.742;18.802;2023-02-15T00:01:42;76.10;;;44.60;;
32491;SDS011;20605;49.742;18.802;2023-02-15T00:04:09;76.50;;;46.40;;
32491;SDS011;20605;49.742;18.802;2023-02-15T00:06:38;75.70;;;46.40;;
32491;SDS011;20605;49.742;18.802;2023-02-15T00:09:05;77.80;;;46.10;;
32491;SDS011;20605;49.742;18.802;2023-02-15T00:11:31;82.50;;;47.20;;
32491;SDS011;20605;49.742;18.802;2023-02-15T00:14:10;72.30;;;43.70;;
32491;SDS011;20605;49.742;18.802;2023-02-15T00:16:38;78.30;;;47.10;;
32491;SDS011;20605;49.742;18.802;2023-02-15T00:19:05;73.40;;;42.50;;
32491;SDS011;20605;49.742;18.802;2023-02-15T00:21:32;72.70;;;44.30;;
32491;SDS011;20605;49.742;18.802;2023-02-15T00:24:00;70.00;;;43.70;;
32491;SDS011;20605;49.742;18.802;2023-02-15T00:26:27;81.20;;;45.80;;
32491;SDS011;20605;49.742;18.802;2023-02-15T00:28:55;78.50;;;46.50;;
32491;SDS011;20605;49.742;18.802;2023-02-15T00:31:21;78.40;;;46.60;;
32491;SDS011;20605;49.742;18.802;2023-02-15T00:33:47;72.50;;;44.30;;
32491;SDS011;20605;49.742;18.802;2023-02-15T00:36:13;64.80;;;40.30;;
32491;SDS011;20605;49.742;18.802;2023-02-15T00:38:39;59.60;;;38.40;;
32491;SDS011;20605;49.742;18.802;2023-02-15T00:41:06;56.40;;;36.90;;
32491;SDS011;20605;49.742;18.802;2023-02-15T00:43:33;54.60;;;35.10;;
32491;SDS011;20605;49.742;18.802;2023-02-15T00:46:01;58.90;;;37.00;;
32491;SDS011;20605;49.742;18.802;2023-02-15T00:48:28;58.90;;;36.80;;
32491;SDS011;20605;49.742;18.802;2023-02-15T00:50:56;81.00;;;43.90;;
32491;SDS011;20605;49.742;18.802;2023-02-15T00:53:24;72.80;;;42.70;;
32491;SDS011;20605;49.742;18.802;2023-02-15T00:55:51;177.20;;;71.50;;
32491;SDS011;20605;49.742;18.802;2023-02-15T00:58:17;127.70;;;57.70;;
32491;SDS011;20605;49.742;18.802;2023-02-15T01:00:45;182.20;;;75.30;;
32491;SDS011;20605;49.742;18.802;2023-02-15T01:03:13;156.90;;;70.80;;
32491;SDS011;20605;49.742;18.802;2023-02-15T01:05:41;192.50;;;81.90;;
32491;SDS011;20605;49.742;18.802;2023-02-15T01:08:07;138.40;;;62.70;;
32491;SDS011;20605;49.742;18.802;2023-02-15T01:10:33;184.80;;;80.90;;
32491;SDS011;20605;49.742;18.802;2023-02-15T01:13:00;89.90;;;46.30;;
32491;SDS011;20605;49.742;18.802;2023-02-15T01:15:26;57.80;;;38.00;;
32491;SDS011;20605;49.742;18.802;2023-02-15T01:17:52;57.10;;;34.50;;
32491;SDS011;20605;49.742;18.802;2023-02-15T01:20:24;46.90;;;31.50;;
32491;SDS011;20605;49.742;18.802;2023-02-15T01:22:52;55.70;;;34.30;;
32491;SDS011;20605;49.742;18.802;2023-02-15T01:25:19;51.90;;;34.30;;
32491;SDS011;20605;49.742;18.802;2023-02-15T01:27:47;58.80;;;36.30;;
32491;SDS011;20605;49.742;18.802;2023-02-15T01:30:14;58.80;;;35.90;;
32491;SDS011;20605;49.742;18.802;2023-02-15T01:32:41;56.80;;;36.70;;
32491;SDS011;20605;49.742;18.802;2023-02-15T01:35:08;61.70;;;36.80;;
32491;SDS011;20605;49.742;18.802;2023-02-15T01:37:35;64.90;;;36.80;;
32491;SDS011;20605;49.742;18.802;2023-02-15T01:40:02;56.20;;;34.60;;
32491;SDS011;20605;49.742;18.802;2023-02-15T01:42:31;51.10;;;33.00;;
32491;SDS011;20605;49.742;18.802;2023-02-15T01:50:10;55.20;;;36.30;;
32491;SDS011;20605;49.742;18.802;2023-02-15T01:55:40;48.70;;;32.80;;
32491;SDS011;20605;49.742;18.802;2023-02-15T01:58:13;46.20;;;27.60;;
32491;SDS011;20605;49.742;18.802;2023-02-15T02:00:40;59.10;;;34.80;;
32491;SDS011;20605;49.742;18.802;2023-02-15T02:03:06;65.10;;;36.10;;
32491;SDS011;20605;49.742;18.802;2023-02-15T02:05:32;58.50;;;34.70;;
32491;SDS011;20605;49.742;18.802;2023-02-15T02:07:59;62.70;;;36.90;;
32491;SDS011;20605;49.742;18.802;2023-02-15T02:10:27;51.00;;;33.50;;
32491;SDS011;20605;49.742;18.802;2023-02-15T02:12:57;51.40;;;33.50;;
32491;SDS011;20605;49.742;18.802;2023-02-15T02:15:43;54.50;;;34.80;;
32491;SDS011;20605;49.742;18.802;2023-02-15T02:18:25;49.10;;;33.30;;
32491;SDS011;20605;49.742;18.802;2023-02-15T02:37:13;60.80;;;37.10;;
32491;SDS011;20605;49.742;18.802;2023-02-15T02:42:40;52.80;;;33.20;;
32491;SDS011;20605;49.742;18.802;2023-02-15T02:45:13;58.00;;;37.60;;
32491;SDS011;20605;49.742;18.802;2023-02-15T02:50:26;45.20;;;31.70;;
32491;SDS011;20605;49.742;18.802;2023-02-15T02:52:55;51.30;;;35.90;;
32491;SDS011;20605;49.742;18.802;2023-02-15T03:00:37;66.50;;;36.20;;
32491;SDS011;20605;49.742;18.802;2023-02-15T03:03:13;59.80;;;35.90;;
32491;SDS011;20605;49.742;18.802;2023-02-15T03:06:00;59.10;;;35.40;;
32491;SDS011;20605;49.742;18.802;2023-02-15T03:08:40;46.10;;;29.00;;
32491;SDS011;20605;49.742;18.802;2023-02-15T03:11:09;43.00;;;29.80;;
32491;SDS011;20605;49.742;18.802;2023-02-15T03:13:37;38.40;;;26.70;;
32491;SDS011;20605;49.742;18.802;2023-02-15T03:16:04;36.10;;;25.60;;
32491;SDS011;20605;49.742;18.802;2023-02-15T03:18:52;48.60;;;29.70;;
32491;SDS011;20605;49.742;18.802;2023-02-15T03:21:34;50.30;;;30.60;;
32491;SDS011;20605;49.742;18.802;2023-02-15T03:24:34;41.20;;;28.10;;
32491;SDS011;20605;49.742;18.802;2023-02-15T03:27:06;38.20;;;25.70;;
32491;SDS011;20605;49.742;18.802;2023-02-15T03:29:45;38.00;;;25.60;;
32491;SDS011;20605;49.742;18.802;2023-02-15T03:32:16;52.40;;;29.90;;
32491;SDS011;20605;49.742;18.802;2023-02-15T03:34:42;53.30;;;30.50;;
32491;SDS011;20605;49.742;18.802;2023-02-15T03:37:10;54.20;;;30.60;;
32491;SDS011;20605;49.742;18.802;2023-02-15T03:39:47;59.00;;;30.80;;
32491;SDS011;20605;49.742;18.802;2023-02-15T03:42:31;43.80;;;27.20;;
32491;SDS011;20605;49.742;18.802;2023-02-15T03:45:06;42.10;;;27.20;;
32491;SDS011;20605;49.742;18.802;2023-02-15T03:47:38;68.10;;;35.30;;
32491;SDS011;20605;49.742;18.802;2023-02-15T03:50:10;71.30;;;36.50;;
32491;SDS011;20605;49.742;18.802;2023-02-15T03:53:00;55.30;;;31.50;;
32491;SDS011;20605;49.742;18.802;2023-02-15T03:55:30;49.30;;;29.10;;
32491;SDS011;20605;49.742;18.802;2023-02-15T03:57:56;40.60;;;25.20;;
32491;SDS011;20605;49.742;18.802;2023-02-15T04:00:41;37.60;;;24.30;;
32491;SDS011;20605;49.742;18.802;2023-02-15T04:04:19;35.60;;;23.90;;
32491;SDS011;20605;49.742;18.802;2023-02-15T04:06:25;44.20;;;26.50;;
32491;SDS011;20605;49.742;18.802;2023-02-15T04:08:51;41.00;;;25.30;;
32491;SDS011;20605;49.742;18.802;2023-02-15T04:11:36;45.90;;;26.90;;
32491;SDS011;20605;49.742;18.802;2023-02-15T04:14:02;48.40;;;26.40;;
32491;SDS011;20605;49.742;18.802;2023-02-15T04:19:13;48.20;;;29.30;;
32491;SDS011;20605;49.742;18.802;2023-02-15T04:21:57;50.00;;;33.00;;
32491;SDS011;20605;49.742;18.802;2023-02-15T04:24:42;46.30;;;27.40;;
32491;SDS011;20605;49.742;18.802;2023-02-15T04:27:26;44.20;;;26.70;;
32491;SDS011;20605;49.742;18.802;2023-02-15T04:29:52;40.50;;;25.70;;
32491;SDS011;20605;49.742;18.802;2023-02-15T04:32:18;38.60;;;24.80;;
32491;SDS011;20605;49.742;18.802;2023-02-15T04:34:44;35.10;;;24.80;;
32491;SDS011;20605;49.742;18.802;2023-02-15T04:37:09;36.80;;;24.60;;
32491;SDS011;20605;49.742;18.802;2023-02-15T04:39:35;40.10;;;26.60;;
32491;SDS011;20605;49.742;18.802;2023-02-15T04:42:01;41.00;;;24.20;;
32491;SDS011;20605;49.742;18.802;2023-02-15T04:44:27;38.70;;;26.60;;
32491;SDS011;20605;49.742;18.802;2023-02-15T04:46:52;44.20;;;28.70;;
32491;SDS011;20605;49.742;18.802;2023-02-15T04:49:18;43.20;;;28.30;;
32491;SDS011;20605;49.742;18.802;2023-02-15T04:51:44;38.50;;;27.20;;
32491;SDS011;20605;49.742;18.802;2023-02-15T04:54:10;45.90;;;28.00;;
32491;SDS011;20605;49.742;18.802;2023-02-15T04:56:36;70.60;;;37.00;;
32491;SDS011;20605;49.742;18.802;2023-02-15T04:59:03;63.10;;;34.80;;
32491;SDS011;20605;49.742;18.802;2023-02-15T05:01:29;50.50;;;29.00;;
32491;SDS011;20605;49.742;18.802;2023-02-15T05:03:54;151.60;;;80.60;;
32491;SDS011;20605;49.742;18.802;2023-02-15T05:06:20;135.20;;;64.20;;
32491;SDS011;20605;49.742;18.802;2023-02-15T05:08:47;251.00;;;127.10;;
32491;SDS011;20605;49.742;18.802;2023-02-15T05:11:13;398.50;;;199.40;;
32491;SDS011;20605;49.742;18.802;2023-02-15T05:13:39;169.40;;;85.80;;
32491;SDS011;20605;49.742;18.802;2023-02-15T05:16:05;121.70;;;62.70;;
32491;SDS011;20605;49.742;18.802;2023-02-15T05:18:31;100.70;;;55.80;;
32491;SDS011;20605;49.742;18.802;2023-02-15T05:20:56;161.20;;;69.30;;
32491;SDS011;20605;49.742;18.802;2023-02-15T05:23:22;109.70;;;53.90;;
32491;SDS011;20605;49.742;18.802;2023-02-15T05:25:48;72.10;;;41.80;;
32491;SDS011;20605;49.742;18.802;2023-02-15T05:28:33;74.30;;;44.60;;
32491;SDS011;20605;49.742;18.802;2023-02-15T05:31:06;82.10;;;46.60;;
32491;SDS011;20605;49.742;18.802;2023-02-15T05:33:35;60.30;;;35.50;;
32491;SDS011;20605;49.742;18.802;2023-02-15T05:36:01;44.90;;;28.50;;
32491;SDS011;20605;49.742;18.802;2023-02-15T05:38:28;35.10;;;24.40;;
32491;SDS011;20605;49.742;18.802;2023-02-15T05:40:55;42.20;;;25.70;;
32491;SDS011;20605;49.742;18.802;2023-02-15T05:43:21;55.50;;;30.20;;
32491;SDS011;20605;49.742;18.802;2023-02-15T05:45:48;84.90;;;38.20;;
32491;SDS011;20605;49.742;18.802;2023-02-15T05:48:16;50.60;;;27.90;;
32491;SDS011;20605;49.742;18.802;2023-02-15T05:50:58;50.70;;;29.20;;
32491;SDS011;20605;49.742;18.802;2023-02-15T05:53:26;53.80;;;30.60;;
32491;SDS011;20605;49.742;18.802;2023-02-15T05:55:53;45.40;;;27.70;;
32491;SDS011;20605;49.742;18.802;2023-02-15T05:58:26;37.50;;;23.40;;
32491;SDS011;20605;49.742;18.802;2023-02-15T06:00:58;32.30;;;21.70;;
32491;SDS011;20605;49.742;18.802;2023-02-15T06:03:24;34.40;;;23.30;;
32491;SDS011;20605;49.742;18.802;2023-02-15T06:05:51;33.00;;;21.50;;
32491;SDS011;20605;49.742;18.802;2023-02-15T06:08:18;30.70;;;20.30;;
32491;SDS011;20605;49.742;18.802;2023-02-15T06:10:45;31.60;;;21.10;;
32491;SDS011;20605;49.742;18.802;2023-02-15T06:13:11;34.30;;;21.40;;
32491;SDS011;20605;49.742;18.802;2023-02-15T06:15:37;36.40;;;22.70;;
32491;SDS011;20605;49.742;18.802;2023-02-15T06:18:03;43.30;;;25.10;;
32491;SDS011;20605;49.742;18.802;2023-02-15T06:20:29;69.60;;;37.40;;
32491;SDS011;20605;49.742;18.802;2023-02-15T06:22:55;53.10;;;30.70;;
32491;SDS011;20605;49.742;18.802;2023-02-15T06:25:20;47.00;;;27.40;;
32491;SDS011;20605;49.742;18.802;2023-02-15T06:27:46;42.50;;;26.90;;
32491;SDS011;20605;49.742;18.802;2023-02-15T06:30:13;40.10;;;24.50;;
32491;SDS011;20605;49.742;18.802;2023-02-15T06:32:57;38.20;;;24.70;;
32491;SDS011;20605;49.742;18.802;2023-02-15T06:35:22;46.60;;;28.10;;
32491;SDS011;20605;49.742;18.802;2023-02-15T06:37:48;70.70;;;37.60;;
32491;SDS011;20605;49.742;18.802;2023-02-15T06:40:15;50.20;;;31.20;;
32491;SDS011;20605;49.742;18.802;2023-02-15T06:42:41;45.60;;;29.20;;
32491;SDS011;20605;49.742;18.802;2023-02-15T06:45:07;38.40;;;25.40;;
32491;SDS011;20605;49.742;18.802;2023-02-15T06:47:34;38.10;;;25.80;;
32491;SDS011;20605;49.742;18.802;2023-02-15T06:50:00;196.30;;;67.00;;
32491;SDS011;20605;49.742;18.802;2023-02-15T06:52:26;104.40;;;43.30;;
32491;SDS011;20605;49.742;18.802;2023-02-15T06:54:51;60.00;;;34.70;;
32491;SDS011;20605;49.742;18.802;2023-02-15T06:57:17;37.20;;;30.30;;
32491;SDS011;20605;49.742;18.802;2023-02-15T06:59:43;32.90;;;25.70;;
32491;SDS011;20605;49.742;18.802;2023-02-15T07:02:11;33.20;;;28.30;;
32491;SDS011;20605;49.742;18.802;2023-02-15T07:04:38;113.90;;;80.50;;
32491;SDS011;20605;49.742;18.802;2023-02-15T07:07:04;117.00;;;86.80;;
32491;SDS011;20605;49.742;18.802;2023-02-15T07:09:33;166.50;;;125.40;;
32491;SDS011;20605;49.742;18.802;2023-02-15T07:11:58;97.80;;;80.00;;
32491;SDS011;20605;49.742;18.802;2023-02-15T07:14:43;40.40;;;36.10;;
32491;SDS011;20605;49.742;18.802;2023-02-15T07:17:09;24.60;;;22.20;;
32491;SDS011;20605;49.742;18.802;2023-02-15T07:19:34;29.50;;;26.70;;
32491;SDS011;20605;49.742;18.802;2023-02-15T07:22:00;23.20;;;21.10;;
32491;SDS011;20605;49.742;18.802;2023-02-15T07:24:26;26.70;;;24.10;;
32491;SDS011;20605;49.742;18.802;2023-02-15T07:26:52;27.00;;;24.60;;
32491;SDS011;20605;49.742;18.802;2023-02-15T07:29:17;27.00;;;24.50;;
32491;SDS011;20605;49.742;18.802;2023-02-15T07:31:43;27.10;;;24.60;;
32491;SDS011;20605;49.742;18.802;2023-02-15T07:34:10;26.10;;;23.70;;
32491;SDS011;20605;49.742;18.802;2023-02-15T07:36:40;23.70;;;21.50;;
32491;SDS011;20605;49.742;18.802;2023-02-15T07:39:14;20.20;;;18.30;;
32491;SDS011;20605;49.742;18.802;2023-02-15T07:41:40;27.10;;;24.50;;
32491;SDS011;20605;49.742;18.802;2023-02-15T07:44:13;20.90;;;19.20;;
32491;SDS011;20605;49.742;18.802;2023-02-15T07:46:40;29.30;;;26.50;;
32491;SDS011;20605;49.742;18.802;2023-02-15T07:49:06;32.60;;;29.80;;
32491;SDS011;20605;49.742;18.802;2023-02-15T07:51:34;31.80;;;29.00;;
32491;SDS011;20605;49.742;18.802;2023-02-15T07:54:01;25.10;;;22.90;;
32491;SDS011;20605;49.742;18.802;2023-02-15T07:56:27;49.30;;;44.50;;
32491;SDS011;20605;49.742;18.802;2023-02-15T07:58:52;31.50;;;28.50;;
32491;SDS011;20605;49.742;18.802;2023-02-15T08:01:27;28.10;;;25.40;;
32491;SDS011;20605;49.742;18.802;2023-02-15T08:03:55;25.20;;;23.00;;
32491;SDS011;20605;49.742;18.802;2023-02-15T08:06:22;23.90;;;21.90;;
32491;SDS011;20605;49.742;18.802;2023-02-15T08:08:51;22.60;;;20.70;;
32491;SDS011;20605;49.742;18.802;2023-02-15T08:11:25;23.80;;;21.70;;
32491;SDS011;20605;49.742;18.802;2023-02-15T08:16:37;23.10;;;21.30;;
32491;SDS011;20605;49.742;18.802;2023-02-15T08:21:36;34.00;;;30.80;;
32491;SDS011;20605;49.742;18.802;2023-02-15T08:24:05;23.40;;;21.40;;
32491;SDS011;20605;49.742;18.802;2023-02-15T08:26:32;21.70;;;19.90;;
32491;SDS011;20605;49.742;18.802;2023-02-15T08:28:58;21.60;;;19.90;;
32491;SDS011;20605;49.742;18.802;2023-02-15T08:31:24;24.80;;;22.90;;
32491;SDS011;20605;49.742;18.802;2023-02-15T08:33:54;23.00;;;21.20;;
32491;SDS011;20605;49.742;18.802;2023-02-15T08:36:22;23.90;;;22.00;;
32491;SDS011;20605;49.742;18.802;2023-02-15T08:38:50;22.50;;;20.60;;
32491;SDS011;20605;49.742;18.802;2023-02-15T08:41:23;23.50;;;21.60;;
32491;SDS011;20605;49.742;18.802;2023-02-15T08:46:19;24.60;;;22.50;;
32491;SDS011;20605;49.742;18.802;2023-02-15T08:48:46;27.90;;;25.60;;
32491;SDS011;20605;49.742;18.802;2023-02-15T08:51:19;29.20;;;26.80;;
32491;SDS011;20605;49.742;18.802;2023-02-15T08:53:49;29.50;;;27.00;;
32491;SDS011;20605;49.742;18.802;2023-02-15T08:56:17;29.50;;;26.80;;
32491;SDS011;20605;49.742;18.802;2023-02-15T08:58:45;28.60;;;26.00;;
32491;SDS011;20605;49.742;18.802;2023-02-15T09:01:11;30.20;;;27.60;;
32491;SDS011;20605;49.742;18.802;2023-02-15T09:03:39;29.40;;;26.90;;
32491;SDS011;20605;49.742;18.802;2023-02-15T09:06:05;31.70;;;29.00;;
32491;SDS011;20605;49.742;18.802;2023-02-15T09:08:32;30.10;;;27.50;;
32491;SDS011;20605;49.742;18.802;2023-02-15T09:11:08;30.90;;;28.20;;
32491;SDS011;20605;49.742;18.802;2023-02-15T09:13:36;31.60;;;28.80;;
32491;SDS011;20605;49.742;18.802;2023-02-15T09:16:04;31.60;;;28.90;;
32491;SDS011;20605;49.742;18.802;2023-02-15T09:18:32;30.20;;;27.80;;
32491;SDS011;20605;49.742;18.802;2023-02-15T09:21:07;29.20;;;26.70;;
32491;SDS011;20605;49.742;18.802;2023-02-15T09:23:39;30.70;;;27.80;;
32491;SDS011;20605;49.742;18.802;2023-02-15T09:26:10;32.20;;;29.50;;
32491;SDS011;20605;49.742;18.802;2023-02-15T09:28:38;34.50;;;31.40;;
32491;SDS011;20605;49.742;18.802;2023-02-15T09:31:08;30.80;;;28.00;;
32491;SDS011;20605;49.742;18.802;2023-02-15T09:33:40;30.30;;;27.70;;
32491;SDS011;20605;49.742;18.802;2023-02-15T09:36:24;31.50;;;28.80;;
32491;SDS011;20605;49.742;18.802;2023-02-15T10:01:07;33.10;;;30.20;;
32491;SDS011;20605;49.742;18.802;2023-02-15T10:06:31;32.30;;;29.20;;
32491;SDS011;20605;49.742;18.802;2023-02-15T10:09:23;33.50;;;30.10;;
32491;SDS011;20605;49.742;18.802;2023-02-15T10:19:54;35.70;;;32.20;;
32491;SDS011;20605;49.742;18.802;2023-02-15T10:26:18;38.20;;;34.20;;
32491;SDS011;20605;49.742;18.802;2023-02-15T10:31:31;41.10;;;36.50;;
32491;SDS011;20605;49.742;18.802;2023-02-15T10:41:53;48.70;;;38.30;;
32491;SDS011;20605;49.742;18.802;2023-02-15T10:44:49;45.50;;;37.40;;
32491;SDS011;20605;49.742;18.802;2023-02-15T11:07:40;48.10;;;35.50;;
32491;SDS011;20605;49.742;18.802;2023-02-15T11:13:08;50.40;;;36.70;;
32491;SDS011;20605;49.742;18.802;2023-02-15T11:15:39;50.60;;;36.50;;
32491;SDS011;20605;49.742;18.802;2023-02-15T11:18:15;48.70;;;35.30;;
32491;SDS011;20605;49.742;18.802;2023-02-15T11:23:32;48.50;;;34.30;;
32491;SDS011;20605;49.742;18.802;2023-02-15T11:26:04;45.10;;;34.10;;
32491;SDS011;20605;49.742;18.802;2023-02-15T11:28:44;45.50;;;33.90;;
32491;SDS011;20605;49.742;18.802;2023-02-15T11:31:58;45.20;;;33.00;;
32491;SDS011;20605;49.742;18.802;2023-02-15T11:34:44;42.70;;;31.50;;
32491;SDS011;20605;49.742;18.802;2023-02-15T11:37:14;50.90;;;35.60;;
32491;SDS011;20605;49.742;18.802;2023-02-15T11:39:44;42.20;;;29.80;;
32491;SDS011;20605;49.742;18.802;2023-02-15T11:42:18;41.60;;;30.00;;
32491;SDS011;20605;49.742;18.802;2023-02-15T11:45:01;43.20;;;30.00;;
32491;SDS011;20605;49.742;18.802;2023-02-15T11:47:42;41.40;;;29.90;;
32491;SDS011;20605;49.742;18.802;2023-02-15T11:50:14;36.80;;;26.80;;
32491;SDS011;20605;49.742;18.802;2023-02-15T11:52:44;43.40;;;29.70;;
32491;SDS011;20605;49.742;18.802;2023-02-15T11:55:12;41.80;;;29.90;;
32491;SDS011;20605;49.742;18.802;2023-02-15T11:57:44;38.00;;;28.90;;
32491;SDS011;20605;49.742;18.802;2023-02-15T12:02:52;50.70;;;32.90;;
32491;SDS011;20605;49.742;18.802;2023-02-15T12:05:21;44.60;;;31.60;;
32491;SDS011;20605;49.742;18.802;2023-02-15T12:08:10;50.80;;;35.60;;
32491;SDS011;20605;49.742;18.802;2023-02-15T12:10:42;49.50;;;34.40;;
32491;SDS011;20605;49.742;18.802;2023-02-15T12:13:23;47.40;;;33.90;;
32491;SDS011;20605;49.742;18.802;2023-02-15T12:15:53;46.90;;;32.80;;
32491;SDS011;20605;49.742;18.802;2023-02-15T12:20:58;45.70;;;32.80;;
32491;SDS011;20605;49.742;18.802;2023-02-15T12:23:28;45.20;;;31.80;;
32491;SDS011;20605;49.742;18.802;2023-02-15T12:25:55;43.50;;;30.80;;
32491;SDS011;20605;49.742;18.802;2023-02-15T12:30:57;44.20;;;31.20;;
32491;SDS011;20605;49.742;18.802;2023-02-15T12:36:09;40.50;;;29.20;;
32491;SDS011;20605;49.742;18.802;2023-02-15T12:38:36;41.40;;;30.50;;
32491;SDS011;20605;49.742;18.802;2023-02-15T12:41:03;40.40;;;30.10;;
32491;SDS011;20605;49.742;18.802;2023-02-15T12:43:46;43.20;;;29.90;;
32491;SDS011;20605;49.742;18.802;2023-02-15T12:46:13;43.40;;;30.50;;
32491;SDS011;20605;49.742;18.802;2023-02-15T12:48:40;38.00;;;27.70;;
32491;SDS011;20605;49.742;18.802;2023-02-15T12:51:07;35.60;;;26.60;;
32491;SDS011;20605;49.742;18.802;2023-02-15T12:53:35;42.70;;;28.80;;
32491;SDS011;20605;49.742;18.802;2023-02-15T12:56:03;40.00;;;28.80;;
32491;SDS011;20605;49.742;18.802;2023-02-15T12:58:32;37.00;;;27.20;;
32491;SDS011;20605;49.742;18.802;2023-02-15T13:03:35;36.50;;;26.60;;
32491;SDS011;20605;49.742;18.802;2023-02-15T13:06:03;38.00;;;26.60;;
32491;SDS011;20605;49.742;18.802;2023-02-15T13:08:34;38.10;;;26.80;;
32491;SDS011;20605;49.742;18.802;2023-02-15T13:11:11;36.70;;;26.40;;
32491;SDS011;20605;49.742;18.802;2023-02-15T13:13:50;33.80;;;26.20;;
32491;SDS011;20605;49.742;18.802;2023-02-15T13:16:31;36.90;;;26.50;;
32491;SDS011;20605;49.742;18.802;2023-02-15T13:19:36;39.10;;;28.30;;
32491;SDS011;20605;49.742;18.802;2023-02-15T13:22:00;40.50;;;25.90;;
32491;SDS011;20605;49.742;18.802;2023-02-15T13:24:35;36.90;;;26.80;;
32491;SDS011;20605;49.742;18.802;2023-02-15T13:27:05;37.90;;;26.80;;
32491;SDS011;20605;49.742;18.802;2023-02-15T13:29:36;52.60;;;39.60;;
32491;SDS011;20605;49.742;18.802;2023-02-15T13:32:46;43.70;;;31.00;;
32491;SDS011;20605;49.742;18.802;2023-02-15T13:35:05;55.90;;;39.70;;
32491;SDS011;20605;49.742;18.802;2023-02-15T13:37:45;144.10;;;118.10;;
32491;SDS011;20605;49.742;18.802;2023-02-15T13:48:17;40.10;;;29.20;;
32491;SDS011;20605;49.742;18.802;2023-02-15T14:03:44;40.70;;;28.00;;
32491;SDS011;20605;49.742;18.802;2023-02-15T14:06:35;42.30;;;29.00;;
32491;SDS011;20605;49.742;18.802;2023-02-15T14:28:19;48.70;;;31.70;;
32491;SDS011;20605;49.742;18.802;2023-02-15T14:30:55;49.60;;;32.90;;
32491;SDS011;20605;49.742;18.802;2023-02-15T14:35:54;45.30;;;31.10;;
32491;SDS011;20605;49.742;18.802;2023-02-15T14:38:44;48.30;;;32.90;;
32491;SDS011;20605;49.742;18.802;2023-02-15T14:41:25;44.50;;;31.50;;
32491;SDS011;20605;49.742;18.802;2023-02-15T14:44:39;50.30;;;33.70;;
32491;SDS011;20605;49.742;18.802;2023-02-15T14:49:36;47.00;;;32.20;;
32491;SDS011;20605;49.742;18.802;2023-02-15T14:52:05;45.40;;;31.50;;
32491;SDS011;20605;49.742;18.802;2023-02-15T15:04:33;46.20;;;31.60;;
32491;SDS011;20605;49.742;18.802;2023-02-15T15:07:02;44.70;;;32.10;;
32491;SDS011;20605;49.742;18.802;2023-02-15T15:15:00;38.70;;;26.60;;
32491;SDS011;20605;49.742;18.802;2023-02-15T15:20:00;55.00;;;32.50;;
32491;SDS011;20605;49.742;18.802;2023-02-15T15:22:27;56.30;;;34.30;;
32491;SDS011;20605;49.742;18.802;2023-02-15T15:27:54;49.00;;;32.30;;
32491;SDS011;20605;49.742;18.802;2023-02-15T15:43:41;54.10;;;37.30;;
32491;SDS011;20605;49.742;18.802;2023-02-15T15:49:21;105.40;;;52.70;;
32491;SDS011;20605;49.742;18.802;2023-02-15T15:51:50;89.70;;;50.00;;
32491;SDS011;20605;49.742;18.802;2023-02-15T15:54:20;125.40;;;61.10;;
32491;SDS011;20605;49.742;18.802;2023-02-15T15:56:56;158.10;;;79.00;;
32491;SDS011;20605;49.742;18.802;2023-02-15T15:59:27;86.70;;;51.40;;
32491;SDS011;20605;49.742;18.802;2023-02-15T16:02:07;89.60;;;53.90;;
32491;SDS011;20605;49.742;18.802;2023-02-15T16:04:48;109.30;;;60.00;;
32491;SDS011;20605;49.742;18.802;2023-02-15T16:10:06;186.40;;;99.30;;
32491;SDS011;20605;49.742;18.802;2023-02-15T16:12:33;170.60;;;96.70;;
32491;SDS011;20605;49.742;18.802;2023-02-15T16:15:04;136.40;;;80.80;;
32491;SDS011;20605;49.742;18.802;2023-02-15T16:17:50;187.50;;;102.40;;
32491;SDS011;20605;49.742;18.802;2023-02-15T16:22:49;168.80;;;91.40;;
32491;SDS011;20605;49.742;18.802;2023-02-15T16:25:49;185.70;;;96.10;;
32491;SDS011;20605;49.742;18.802;2023-02-15T16:28:38;171.80;;;94.60;;
32491;SDS011;20605;49.742;18.802;2023-02-15T16:31:11;138.30;;;82.10;;
32491;SDS011;20605;49.742;18.802;2023-02-15T16:33:40;143.50;;;88.30;;
32491;SDS011;20605;49.742;18.802;2023-02-15T16:36:11;179.70;;;103.40;;
32491;SDS011;20605;49.742;18.802;2023-02-15T16:39:06;111.50;;;65.50;;
32491;SDS011;20605;49.742;18.802;2023-02-15T16:41:35;115.10;;;63.70;;
32491;SDS011;20605;49.742;18.802;2023-02-15T16:44:05;112.20;;;61.70;;
32491;SDS011;20605;49.742;18.802;2023-02-15T16:46:41;94.10;;;57.50;;
32491;SDS011;20605;49.742;18.802;2023-02-15T16:49:17;90.00;;;50.90;;
32491;SDS011;20605;49.742;18.802;2023-02-15T16:52:05;236.40;;;121.30;;
32491;SDS011;20605;49.742;18.802;2023-02-15T16:54:34;140.40;;;80.80;;
32491;SDS011;20605;49.742;18.802;2023-02-15T16:57:01;110.80;;;66.70;;
32491;SDS011;20605;49.742;18.802;2023-02-15T16:59:39;108.20;;;64.20;;
32491;SDS011;20605;49.742;18.802;2023-02-15T17:02:13;116.30;;;64.20;;
32491;SDS011;20605;49.742;18.802;2023-02-15T17:04:56;103.00;;;59.60;;
32491;SDS011;20605;49.742;18.802;2023-02-15T17:08:06;150.60;;;88.60;;
32491;SDS011;20605;49.742;18.802;2023-02-15T17:15:43;207.50;;;118.80;;
32491;SDS011;20605;49.742;18.802;2023-02-15T17:18:31;268.60;;;147.20;;
32491;SDS011;20605;49.742;18.802;2023-02-15T17:20:59;487.30;;;328.00;;
32491;SDS011;20605;49.742;18.802;2023-02-15T17:23:46;255.10;;;158.90;;
32491;SDS011;20605;49.742;18.802;2023-02-15T17:26:15;216.80;;;128.60;;
32491;SDS011;20605;49.742;18.802;2023-02-15T17:31:45;200.00;;;120.00;;
32491;SDS011;20605;49.742;18.802;2023-02-15T17:34:49;138.00;;;82.50;;
32491;SDS011;20605;49.742;18.802;2023-02-15T17:40:47;112.70;;;60.50;;
32491;SDS011;20605;49.742;18.802;2023-02-15T17:42:52;137.30;;;74.00;;
32491;SDS011;20605;49.742;18.802;2023-02-15T17:45:18;163.70;;;89.30;;
32491;SDS011;20605;49.742;18.802;2023-02-15T17:47:46;202.90;;;110.60;;
32491;SDS011;20605;49.742;18.802;2023-02-15T17:50:23;349.30;;;216.30;;
32491;SDS011;20605;49.742;18.802;2023-02-15T17:52:52;243.90;;;144.90;;
32491;SDS011;20605;49.742;18.802;2023-02-15T17:55:19;180.00;;;96.00;;
32491;SDS011;20605;49.742;18.802;2023-02-15T17:58:10;149.90;;;78.90;;
32491;SDS011;20605;49.742;18.802;2023-02-15T18:00:47;158.80;;;82.40;;
32491;SDS011;20605;49.742;18.802;2023-02-15T18:06:34;181.90;;;83.00;;
32491;SDS011;20605;49.742;18.802;2023-02-15T18:09:20;189.20;;;95.40;;
32491;SDS011;20605;49.742;18.802;2023-02-15T18:12:18;275.10;;;133.10;;
32491;SDS011;20605;49.742;18.802;2023-02-15T18:14:55;185.80;;;93.50;;
32491;SDS011;20605;49.742;18.802;2023-02-15T18:17:44;195.60;;;93.90;;
32491;SDS011;20605;49.742;18.802;2023-02-15T18:20:20;163.10;;;83.70;;
32491;SDS011;20605;49.742;18.802;2023-02-15T18:22:48;167.60;;;84.00;;
32491;SDS011;20605;49.742;18.802;2023-02-15T18:25:16;288.10;;;112.40;;
32491;SDS011;20605;49.742;18.802;2023-02-15T18:27:45;148.80;;;81.30;;